Time;durP1;ratioP1;P1;durP2;ratioP2;P2;SDS_P1;SDS_P2;PMS_P1;PMS_P2;Temp;Humidity;BMP_temperature;BMP_pressure;BME280_temperature;BME280_humidity;BME280_pressure;Samples;Min_cycle;Max_cycle;Signal;HPM_P1;HPM_P2
2021/12/21 00:01:28;;;;;;;22.30;7.00;;;;;;;-3.22;79.34;99271.77;105598;1319;22578;-78
2021/12/21 00:03:55;;;;;;;17.30;6.60;;;;;;;-3.22;79.19;99274.81;105635;1318;22703;-79
2021/12/21 00:06:22;;;;;;;20.20;6.80;;;;;;;-3.21;79.14;99274.32;105620;1318;22658;-78
2021/12/21 00:08:49;;;;;;;21.60;8.00;;;;;;;-3.21;79.32;99275.50;105624;1318;22642;-79
2021/12/21 00:11:16;;;;;;;17.90;7.20;;;;;;;-3.15;79.27;99272.96;105627;1319;22593;-78
2021/12/21 00:17:09;;;;;;;15.90;6.40;;;;;;;-3.04;79.71;99274.48;105602;1319;22682;-78
2021/12/21 00:19:20;;;;;;;19.40;7.60;;;;;;;-3.03;80.00;99278.39;105512;1319;23025;-79
2021/12/21 00:21:54;;;;;;;;;;;;;;;-3.01;79.83;99274.30;105629;1319;22552;-78
2021/12/21 00:24:24;;;;;;;21.40;7.60;;;;;;;-3.00;79.71;99273.63;105637;1319;22550;-79
2021/12/21 00:26:51;;;;;;;19.00;8.00;;;;;;;-3.01;79.53;99271.92;105641;1319;25148;-78
2021/12/21 00:29:20;;;;;;;23.90;7.60;;;;;;;-3.00;79.40;99276.00;105604;1319;22598;-78
2021/12/21 00:31:47;;;;;;;22.40;8.50;;;;;;;-2.99;79.39;99276.17;105586;1319;24286;-79
2021/12/21 00:34:15;;;;;;;23.40;8.30;;;;;;;-2.97;79.20;99278.23;105633;1319;22608;-79
2021/12/21 00:36:45;;;;;;;22.80;8.70;;;;;;;-2.97;79.22;99278.06;105621;1319;23531;-80
2021/12/21 00:39:15;;;;;;;23.80;8.60;;;;;;;-2.93;79.15;99275.66;105559;1319;22653;-78
2021/12/21 00:41:42;;;;;;;22.50;8.70;;;;;;;-2.89;79.45;99274.64;105569;1317;22641;-79
2021/12/21 00:44:09;;;;;;;23.50;8.80;;;;;;;-2.88;79.72;99273.63;105578;1319;22568;-78
2021/12/21 00:46:39;;;;;;;25.90;9.70;;;;;;;-2.90;79.89;99274.81;105559;1317;22585;-78
2021/12/21 00:49:14;;;;;;;26.00;9.80;;;;;;;-2.91;79.68;99278.39;105637;1319;22625;-79
2021/12/21 00:51:44;;;;;;;24.10;9.80;;;;;;;-2.93;79.64;99281.96;105607;1319;25294;-79
2021/12/21 00:54:12;;;;;;;23.30;9.50;;;;;;;-2.93;79.20;99284.35;105594;1319;22602;-79
2021/12/21 00:56:39;;;;;;;23.30;8.60;;;;;;;-2.95;79.26;99284.36;105574;1319;22601;-79
2021/12/21 00:59:07;;;;;;;24.50;9.10;;;;;;;-2.98;79.00;99285.23;105655;1318;23540;-79
2021/12/21 01:01:36;;;;;;;22.00;9.10;;;;;;;-3.00;79.22;99280.79;105581;1319;22587;-79
2021/12/21 01:04:07;;;;;;;24.80;8.70;;;;;;;-3.01;79.16;99285.73;105564;1319;23275;-79
2021/12/21 01:06:47;;;;;;;21.10;8.10;;;;;;;-2.97;78.87;99286.25;105563;1319;22563;-79
2021/12/21 01:09:38;;;;;;;21.10;7.30;;;;;;;-2.95;79.21;99283.84;105586;1319;22574;-79
2021/12/21 01:12:08;;;;;;;20.50;7.90;;;;;;;-2.93;79.53;99286.39;105604;1319;24441;-79
2021/12/21 01:15:04;;;;;;;23.70;9.00;;;;;;;-2.92;79.58;99284.70;105637;1317;23386;-79
2021/12/21 01:17:47;;;;;;;28.30;9.70;;;;;;;-2.91;79.74;99283.85;105648;1316;23797;-79
2021/12/21 01:20:36;;;;;;;23.60;8.40;;;;;;;-2.92;79.33;99286.41;105641;1319;26113;-79
2021/12/21 01:28:31;;;;;;;23.00;10.20;;;;;;;-2.90;79.00;99287.77;105615;1319;22577;-80
2021/12/21 01:31:17;;;;;;;21.80;8.60;;;;;;;-2.83;79.17;99284.52;105645;1317;22696;-77
2021/12/21 01:36:33;;;;;;;21.80;8.00;;;;;;;-2.77;79.77;99278.20;105669;1319;22596;-78
2021/12/21 01:52:01;;;;;;;19.20;7.50;;;;;;;-2.75;79.26;99279.55;105668;1319;23322;-79
2021/12/21 01:54:28;;;;;;;16.60;7.70;;;;;;;-2.70;79.20;99275.64;105583;1319;22580;-79
2021/12/21 01:56:55;;;;;;;19.40;8.10;;;;;;;-2.63;79.50;99272.05;105614;1319;23561;-78
2021/12/21 01:59:22;;;;;;;18.10;7.60;;;;;;;-2.58;79.80;99274.41;105612;1317;22593;-78
2021/12/21 02:01:49;;;;;;;18.40;8.30;;;;;;;-2.58;79.80;99274.74;105608;1318;25376;-78
2021/12/21 02:04:17;;;;;;;21.40;8.90;;;;;;;-2.59;79.81;99272.39;105618;1319;22639;-79
2021/12/21 02:06:45;;;;;;;19.30;8.70;;;;;;;-2.57;79.68;99274.08;105625;1316;22646;-78
2021/12/21 02:09:12;;;;;;;21.20;8.30;;;;;;;-2.56;79.54;99270.83;105640;1319;22578;-79
2021/12/21 02:11:39;;;;;;;22.00;9.10;;;;;;;-2.54;79.37;99273.73;105830;1319;25786;-79
2021/12/21 02:14:09;;;;;;;25.40;10.00;;;;;;;-2.53;79.48;99270.48;105613;1319;22642;-79
2021/12/21 02:17:10;;;;;;;19.00;8.10;;;;;;;-2.46;79.42;99271.83;105654;1319;22606;-79
2021/12/21 02:19:41;;;;;;;18.20;7.50;;;;;;;-2.40;79.67;99268.73;105626;1317;22643;-79
2021/12/21 02:22:13;;;;;;;16.10;7.30;;;;;;;-2.39;79.97;99270.60;105561;1318;22578;-78
2021/12/21 02:24:55;;;;;;;16.20;7.20;;;;;;;-2.37;80.16;99265.14;105569;1319;22635;-79
2021/12/21 02:27:28;;;;;;;16.10;7.00;;;;;;;-2.38;79.76;99263.45;105582;1313;22684;-78
2021/12/21 02:29:56;;;;;;;15.60;7.00;;;;;;;-2.39;79.78;99262.58;105641;1319;22643;-78
2021/12/21 02:32:23;;;;;;;15.60;6.40;;;;;;;-2.40;79.60;99257.30;105643;1319;25354;-79
2021/12/21 02:34:50;;;;;;;15.80;6.60;;;;;;;-2.41;79.41;99256.80;105691;1319;22858;-78
2021/12/21 02:37:17;;;;;;;15.70;6.80;;;;;;;-2.42;79.32;99255.77;105627;1318;25508;-78
2021/12/21 02:39:44;;;;;;;15.60;6.80;;;;;;;-2.38;79.43;99255.25;105635;1317;22735;-78
2021/12/21 02:42:11;;;;;;;18.20;7.30;;;;;;;-2.35;79.56;99253.37;105651;1319;26536;-78
2021/12/21 02:44:39;;;;;;;15.70;6.70;;;;;;;-2.32;79.94;99252.83;105618;1316;22515;-78
2021/12/21 02:47:06;;;;;;;13.60;6.70;;;;;;;-2.33;80.11;99251.48;105613;1319;22594;-78
2021/12/21 02:49:33;;;;;;;15.00;6.70;;;;;;;-2.33;80.02;99249.43;105605;1319;22647;-78
2021/12/21 02:52:00;;;;;;;17.70;7.20;;;;;;;-2.33;79.81;99249.95;105599;1319;23103;-78
2021/12/21 02:54:27;;;;;;;16.60;7.60;;;;;;;-2.35;79.59;99248.26;105642;1320;22510;-78
2021/12/21 02:56:54;;;;;;;20.10;7.60;;;;;;;-2.36;79.61;99250.98;105641;1319;22616;-78
2021/12/21 02:59:21;;;;;;;18.90;8.40;;;;;;;-2.37;79.50;99250.48;105627;1317;22551;-78
2021/12/21 03:01:48;;;;;;;16.20;7.80;;;;;;;-2.33;79.50;99254.55;105599;1320;22643;-78
2021/12/21 03:04:15;;;;;;;17.00;8.30;;;;;;;-2.30;79.91;99253.16;105632;1319;22581;-78
2021/12/21 03:09:46;;;;;;;18.50;8.40;;;;;;;-2.30;80.33;99256.24;105214;1320;22610;-78
2021/12/21 03:14:51;;;;;;;16.20;8.00;;;;;;;-2.28;80.10;99261.53;105583;1319;22529;-78
2021/12/21 03:17:19;;;;;;;18.70;6.70;;;;;;;-2.28;79.76;99262.81;105596;1319;23472;-78
2021/12/21 03:19:46;;;;;;;16.30;7.20;;;;;;;-2.27;79.86;99264.09;105716;1319;22567;-78
2021/12/21 03:22:14;;;;;;;14.70;7.30;;;;;;;-2.20;79.89;99263.88;105624;1319;22674;-78
2021/12/21 03:24:43;;;;;;;14.70;5.90;;;;;;;-2.15;80.13;99268.83;105570;1319;22603;-78
2021/12/21 03:27:11;;;;;;;16.30;5.70;;;;;;;-2.15;80.37;99269.17;105670;1319;22578;-78
2021/12/21 03:29:38;;;;;;;15.20;6.00;;;;;;;-2.16;80.64;99272.59;105636;1319;22601;-78
2021/12/21 03:32:05;;;;;;;16.00;6.50;;;;;;;-2.17;80.37;99269.17;105676;1317;22577;-79
2021/12/21 03:34:33;;;;;;;13.00;5.60;;;;;;;-2.21;80.40;99269.52;105595;1319;22710;-79
2021/12/21 03:37:00;;;;;;;12.90;5.90;;;;;;;-2.22;80.08;99271.05;105600;1319;24136;-79
2021/12/21 03:39:27;;;;;;;15.60;6.00;;;;;;;-2.22;80.19;99270.89;105559;1317;22694;-79
2021/12/21 03:41:57;;;;;;;13.70;5.80;;;;;;;-2.20;80.20;99268.83;105603;1319;22641;-79
2021/12/21 03:44:25;;;;;;;12.30;5.90;;;;;;;-2.13;80.10;99269.14;105644;1317;22590;-78
2021/12/21 03:46:54;;;;;;;11.40;5.50;;;;;;;-2.09;80.32;99268.28;105635;1319;22578;-78
2021/12/21 03:52:23;;;;;;;13.30;6.00;;;;;;;-2.04;80.88;99262.61;105617;1318;26135;-78
2021/12/21 03:55:00;;;;;;;24.00;9.10;;;;;;;-2.03;80.47;99266.36;105545;1320;22524;-78
2021/12/21 03:57:28;;;;;;;23.70;9.30;;;;;;;-2.09;80.39;99269.48;105691;1319;22590;-79
2021/12/21 03:59:55;;;;;;;16.90;7.30;;;;;;;-2.12;80.33;99267.77;105606;1319;25261;-79
2021/12/21 04:02:25;;;;;;;20.40;7.50;;;;;;;-2.12;80.08;99269.48;105657;1319;22600;-79
2021/12/21 04:04:54;;;;;;;17.10;6.80;;;;;;;-2.10;80.08;99270.34;105637;1318;22719;-78
2021/12/21 04:07:21;;;;;;;21.30;8.10;;;;;;;-2.06;80.51;99267.05;105650;1319;23659;-78
2021/12/21 04:09:48;;;;;;;33.60;11.10;;;;;;;-2.08;80.92;99271.35;105690;1319;22657;-78
2021/12/21 04:12:16;;;;;;;23.10;8.80;;;;;;;-2.15;80.84;99273.10;105637;1319;22575;-78
2021/12/21 04:14:43;;;;;;;14.20;5.90;;;;;;;-2.16;80.74;99269.00;105629;1319;22578;-78
2021/12/21 04:17:17;;;;;;;12.60;5.80;;;;;;;-2.18;80.47;99276.00;105646;1319;24342;-78
2021/12/21 04:19:44;;;;;;;14.50;5.20;;;;;;;-2.19;80.35;99273.95;105658;1319;25249;-79
2021/12/21 04:22:11;;;;;;;12.60;4.60;;;;;;;-2.20;80.24;99273.10;105650;1319;22579;-79
2021/12/21 04:24:39;;;;;;;14.80;5.50;;;;;;;-2.18;80.25;99269.34;105665;1318;22666;-79
2021/12/21 04:27:06;;;;;;;13.90;5.90;;;;;;;-2.17;80.47;99270.88;105637;1318;22649;-79
2021/12/21 04:29:33;;;;;;;11.60;4.00;;;;;;;-2.15;80.94;99276.83;105600;1319;23389;-78
2021/12/21 04:32:00;;;;;;;21.80;5.30;;;;;;;-2.19;81.12;99275.83;105632;1319;23224;-78
2021/12/21 04:34:27;;;;;;;12.10;5.00;;;;;;;-2.21;80.87;99276.86;105654;1319;22665;-77
2021/12/21 04:36:54;;;;;;;13.30;5.10;;;;;;;-2.21;80.74;99277.88;105695;1319;22585;-77
2021/12/21 04:40:07;;;;;;;14.60;5.30;;;;;;;-2.21;80.44;99276.52;105649;1319;26991;-77
2021/12/21 04:42:11;;;;;;;11.60;4.60;;;;;;;-2.25;80.47;99276.89;105534;1319;22654;-77
2021/12/21 04:44:38;;;;;;;14.20;5.60;;;;;;;-2.26;80.44;99277.06;105643;1319;22731;-77
2021/12/21 04:47:05;;;;;;;12.10;5.50;;;;;;;-2.20;80.43;99274.30;105648;1317;22652;-77
2021/12/21 04:49:49;;;;;;;13.10;5.40;;;;;;;-2.16;80.52;99273.44;105663;1319;22599;-77
2021/12/21 04:52:33;;;;;;;12.10;4.80;;;;;;;-2.13;80.95;99279.20;105633;1318;22968;-77
2021/12/21 04:55:17;;;;;;;14.00;5.20;;;;;;;-2.13;81.12;99280.91;105383;1316;362397;-78
2021/12/21 04:58:03;;;;;;;11.50;5.10;;;;;;;-2.16;80.70;99279.23;105617;1310;23409;-77
2021/12/21 05:00:49;;;;;;;13.30;4.70;;;;;;;-2.18;80.47;99283.00;105660;1312;24244;-78
2021/12/21 05:03:33;;;;;;;12.90;4.80;;;;;;;-2.22;80.33;99280.95;105686;1310;22560;-78
2021/12/21 05:06:19;;;;;;;10.10;4.70;;;;;;;-2.25;80.23;99284.23;105897;1316;24203;-78
2021/12/21 05:09:11;;;;;;;13.70;5.80;;;;;;;-2.26;80.15;99285.59;105661;1318;22609;-78
2021/12/21 05:12:02;;;;;;;11.70;4.80;;;;;;;-2.23;80.32;99287.80;105672;1318;22651;-78
2021/12/21 05:14:46;;;;;;;11.50;4.50;;;;;;;-2.20;80.61;99294.09;105627;1317;22593;-77
2021/12/21 05:17:31;;;;;;;10.60;4.80;;;;;;;-2.17;80.89;99299.89;105526;1310;23349;-77
2021/12/21 05:20:15;;;;;;;13.80;5.20;;;;;;;-2.16;81.02;99301.77;105644;1320;22591;-78
2021/12/21 05:22:59;;;;;;;11.90;5.10;;;;;;;-2.17;80.72;99302.61;105655;1312;22752;-77
2021/12/21 05:25:44;;;;;;;9.40;4.30;;;;;;;-2.18;80.67;99303.48;105655;1318;22681;-77
2021/12/21 05:28:28;;;;;;;9.60;4.70;;;;;;;-2.19;80.32;99292.38;105653;1310;23453;-77
2021/12/21 05:31:12;;;;;;;11.40;5.20;;;;;;;-2.19;80.30;99285.90;105626;1318;22856;-78
2021/12/21 05:33:56;;;;;;;10.80;4.60;;;;;;;-2.15;80.29;99292.70;105628;1312;22847;-77
2021/12/21 05:36:40;;;;;;;12.90;6.00;;;;;;;-2.13;80.71;99290.30;105639;1311;22712;-77
2021/12/21 05:39:36;;;;;;;10.40;4.70;;;;;;;-2.14;81.20;99297.30;105575;1312;22645;-77
2021/12/21 05:42:22;;;;;;;14.40;6.00;;;;;;;-2.19;81.03;99293.58;105590;1310;22590;-77
2021/12/21 05:45:08;;;;;;;14.10;6.80;;;;;;;-2.18;80.95;99296.81;105615;1318;23230;-78
2021/12/21 05:47:52;;;;;;;13.70;6.00;;;;;;;-2.19;80.57;99300.91;105611;1310;22700;-78
2021/12/21 05:50:36;;;;;;;17.20;6.90;;;;;;;-2.23;80.55;99297.33;105647;1312;22590;-78
2021/12/21 05:53:20;;;;;;;16.70;6.30;;;;;;;-2.24;80.38;99303.33;105641;1311;22659;-78
2021/12/21 05:56:05;;;;;;;17.80;7.00;;;;;;;-2.20;80.53;99308.77;105583;1311;25524;-78
2021/12/21 05:58:32;;;;;;;12.80;5.90;;;;;;;-2.17;80.71;99307.23;105610;1319;22659;-78
2021/12/21 06:00:59;;;;;;;11.80;5.30;;;;;;;-2.17;81.26;99305.87;105631;1320;22679;-78
2021/12/21 06:03:26;;;;;;;21.00;8.50;;;;;;;-2.18;81.15;99305.52;105577;1320;22596;-78
2021/12/21 06:05:53;;;;;;;24.00;9.20;;;;;;;-2.22;80.85;99306.38;105652;1319;22577;-78
2021/12/21 06:08:22;;;;;;;19.20;6.80;;;;;;;-2.27;80.51;99308.45;105606;1319;22605;-78
2021/12/21 06:10:53;;;;;;;16.70;6.40;;;;;;;-2.31;80.44;99309.98;105624;1320;23610;-77
2021/12/21 06:26:15;;;;;;;19.50;8.20;;;;;;;-2.32;80.94;99321.59;105600;1319;24217;-77
2021/12/21 06:28:45;;;;;;;13.20;5.80;;;;;;;-2.36;80.63;99327.58;105541;1319;22598;-77
2021/12/21 06:31:14;;;;;;;22.70;7.90;;;;;;;-2.38;80.41;99329.80;105590;1319;23054;-78
2021/12/21 06:33:41;;;;;;;17.00;7.50;;;;;;;-2.39;80.38;99329.45;105901;1319;23979;-78
2021/12/21 06:36:09;;;;;;;18.80;8.60;;;;;;;-2.36;80.53;99327.75;105639;1319;22579;-79
2021/12/21 06:38:36;;;;;;;20.30;8.70;;;;;;;-2.29;81.09;99338.48;105613;1313;25375;-78
2021/12/21 06:41:04;;;;;;;18.70;7.60;;;;;;;-2.27;81.40;99340.86;105561;1319;22568;-78
2021/12/21 06:43:32;;;;;;;19.50;8.00;;;;;;;-2.28;81.63;99347.36;105596;1319;24316;-78
2021/12/21 06:51:46;;;;;;;16.30;6.80;;;;;;;-2.29;80.80;99344.45;105546;1319;26899;-78
2021/12/21 06:54:14;;;;;;;20.60;6.20;;;;;;;-2.28;80.67;99347.01;105577;1319;22700;-78
2021/12/21 06:56:41;;;;;;;13.30;6.40;;;;;;;-2.25;80.58;99348.38;105635;1317;22632;-78
2021/12/21 06:59:08;;;;;;;18.60;7.70;;;;;;;-2.24;81.10;99349.23;105628;1319;22585;-78
2021/12/21 07:01:37;;;;;;;16.60;6.80;;;;;;;-2.22;81.41;99354.15;105593;1319;25430;-78
2021/12/21 07:04:06;;;;;;;17.90;6.30;;;;;;;-2.25;81.34;99361.52;105597;1319;22666;-78
2021/12/21 07:06:39;;;;;;;21.20;8.10;;;;;;;-2.28;81.21;99359.30;105563;1319;22636;-79
2021/12/21 07:11:56;;;;;;;21.00;7.80;;;;;;;-2.27;80.97;99364.77;105644;1319;22676;-78
2021/12/21 07:19:55;;;;;;;18.80;8.50;;;;;;;-2.10;81.00;99372.56;105620;1319;23130;-78
2021/12/21 07:22:22;;;;;;;21.80;9.00;;;;;;;-2.06;81.33;99375.96;105586;1319;22640;-78
2021/12/21 07:24:49;;;;;;;23.30;9.70;;;;;;;-2.06;81.39;99374.77;105614;1319;22592;-78
2021/12/21 07:27:16;;;;;;;23.00;10.10;;;;;;;-2.05;81.19;99375.77;105598;1317;22620;-77
2021/12/21 07:29:43;;;;;;;26.00;9.60;;;;;;;-2.06;80.95;99376.30;105623;1319;24263;-77
2021/12/21 07:32:10;;;;;;;24.40;10.70;;;;;;;-2.06;80.81;99377.31;105593;1319;22722;-76
2021/12/21 07:34:37;;;;;;;26.00;10.80;;;;;;;-2.05;80.51;99379.02;105654;1317;22582;-78
2021/12/21 07:37:06;;;;;;;24.30;11.00;;;;;;;-2.01;80.53;99377.48;105613;1319;22626;-77
2021/12/21 07:39:33;;;;;;;24.20;9.70;;;;;;;-1.99;80.79;99378.34;105613;1319;22560;-77
2021/12/21 07:42:00;;;;;;;25.90;10.80;;;;;;;-1.98;80.95;99374.74;105612;1319;22582;-77
2021/12/21 07:44:27;;;;;;;25.80;10.60;;;;;;;-1.97;81.04;99380.36;105635;1319;23012;-77
2021/12/21 07:46:54;;;;;;;21.30;8.70;;;;;;;-1.98;80.85;99382.42;105654;1317;22862;-77
2021/12/21 07:49:21;;;;;;;21.10;9.70;;;;;;;-1.99;80.63;99385.67;105683;1319;22582;-78
2021/12/21 07:51:48;;;;;;;20.30;8.90;;;;;;;-1.99;80.57;99383.64;105641;1319;22594;-79
2021/12/21 07:54:17;;;;;;;18.70;9.10;;;;;;;-1.97;80.36;99386.35;105579;1319;25933;-78
2021/12/21 07:56:45;;;;;;;18.10;7.50;;;;;;;-1.94;80.32;99385.48;105623;1319;22692;-79
2021/12/21 07:59:12;;;;;;;17.50;8.00;;;;;;;-1.86;80.29;99385.63;105633;1319;22598;-79
2021/12/21 08:01:39;;;;;;;23.00;8.40;;;;;;;-1.79;80.67;99391.58;105640;1319;22612;-79
2021/12/21 08:04:07;;;;;;;19.10;8.50;;;;;;;-1.76;80.97;99389.68;105580;1319;22643;-79
2021/12/21 08:06:35;;;;;;;19.40;8.20;;;;;;;-1.74;81.16;99388.32;105668;1319;22606;-79
2021/12/21 08:09:04;;;;;;;20.30;9.40;;;;;;;-1.77;81.07;99392.59;105618;1319;22581;-79
2021/12/21 08:14:04;;;;;;;16.60;7.70;;;;;;;-1.76;80.44;99396.00;105614;1318;23600;-79
2021/12/21 08:16:31;;;;;;;20.10;8.50;;;;;;;-1.79;80.31;99394.14;105605;1319;22575;-79
2021/12/21 08:18:58;;;;;;;20.80;8.70;;;;;;;-1.79;79.94;99399.09;105616;1319;25772;-79
2021/12/21 08:21:26;;;;;;;15.20;6.90;;;;;;;-1.77;79.95;99396.86;105631;1319;22593;-79
2021/12/21 08:23:53;;;;;;;17.00;7.20;;;;;;;-1.81;80.18;99402.86;105598;1317;22646;-79
2021/12/21 08:26:20;;;;;;;19.80;7.50;;;;;;;-1.82;80.56;99403.38;105584;1319;24084;-79
2021/12/21 08:28:47;;;;;;;20.90;7.90;;;;;;;-1.84;80.42;99407.30;105642;1319;23318;-79
2021/12/21 08:31:14;;;;;;;17.00;7.80;;;;;;;-1.87;79.88;99411.92;105596;1319;22710;-78
2021/12/21 08:33:42;;;;;;;18.10;7.20;;;;;;;-1.92;79.76;99417.23;105604;1319;22598;-79
2021/12/21 08:36:11;;;;;;;16.60;7.90;;;;;;;-1.92;79.61;99415.52;105560;1319;22676;-77
2021/12/21 08:38:41;;;;;;;17.40;7.00;;;;;;;-1.91;79.12;99422.52;105624;1319;22646;-79
2021/12/21 08:41:09;;;;;;;17.20;7.40;;;;;;;-1.97;78.76;99425.61;105482;1313;23947;-77
2021/12/21 08:43:37;;;;;;;15.20;7.80;;;;;;;-1.98;78.66;99432.27;105547;1320;22600;-77
2021/12/21 08:46:07;;;;;;;14.70;8.10;;;;;;;-1.97;78.57;99429.52;105474;1319;22665;-77
2021/12/21 08:48:35;;;;;;;23.10;10.90;;;;;;;-2.00;78.90;99438.42;105479;1319;22718;-77
2021/12/21 08:51:02;;;;;;;26.60;13.50;;;;;;;-2.02;79.51;99441.15;105474;1320;25306;-76
2021/12/21 08:53:30;;;;;;;25.80;11.90;;;;;;;-1.99;79.37;99442.02;105492;1320;23590;-76
2021/12/21 08:55:57;;;;;;;23.70;10.50;;;;;;;-2.01;78.83;99444.05;105517;1319;22639;-78
2021/12/21 08:58:24;;;;;;;18.30;9.10;;;;;;;-2.05;78.63;99446.95;105489;1320;22672;-77
2021/12/21 09:00:53;;;;;;;20.40;10.00;;;;;;;-2.05;78.28;99445.09;105529;1320;24284;-75
2021/12/21 09:03:20;;;;;;;16.40;7.70;;;;;;;-2.06;78.11;99449.17;105484;1319;22582;-75
2021/12/21 09:05:47;;;;;;;25.20;10.60;;;;;;;-2.07;77.46;99451.73;105523;1313;25449;-76
2021/12/21 09:08:14;;;;;;;19.80;10.40;;;;;;;-2.10;77.49;99449.19;105543;1317;22587;-76
2021/12/21 09:10:41;;;;;;;22.10;9.50;;;;;;;-2.09;77.46;99450.04;105518;1319;24367;-74
2021/12/21 09:13:10;;;;;;;21.90;9.30;;;;;;;-2.07;76.98;99449.70;105479;1320;25451;-77
2021/12/21 09:15:38;;;;;;;23.70;10.60;;;;;;;-2.09;76.58;99453.12;105657;1320;22616;-77
2021/12/21 09:18:06;;;;;;;24.30;10.50;;;;;;;-2.08;76.86;99454.14;105545;1319;22652;-77
2021/12/21 09:20:34;;;;;;;20.50;10.00;;;;;;;-2.08;77.05;99457.89;105574;1320;26677;-76
2021/12/21 09:23:02;;;;;;;18.90;7.50;;;;;;;-2.10;77.24;99460.80;105555;1318;22590;-77
2021/12/21 09:25:29;;;;;;;11.30;5.60;;;;;;;-2.10;76.83;99457.21;105511;1314;22619;-78
2021/12/21 09:27:57;;;;;;;11.60;5.40;;;;;;;-2.13;76.63;99454.30;105502;1320;22908;-77
2021/12/21 09:30:28;;;;;;;17.80;7.60;;;;;;;-2.14;76.02;99458.08;105515;1319;23063;-77
2021/12/21 09:32:55;;;;;;;15.10;7.00;;;;;;;-2.18;76.12;99455.86;105508;1319;22590;-80
2021/12/21 09:35:23;;;;;;;13.70;5.60;;;;;;;-2.19;75.66;99455.52;105758;1319;22582;-75
2021/12/21 09:37:51;;;;;;;19.10;7.70;;;;;;;-2.25;75.33;99452.80;105535;1319;23379;-75
2021/12/21 09:40:21;;;;;;;15.30;6.50;;;;;;;-2.33;75.36;99455.17;105502;1320;22598;-78
2021/12/21 09:42:50;;;;;;;16.00;6.80;;;;;;;-2.39;75.37;99457.57;105480;1320;23052;-76
2021/12/21 09:45:18;;;;;;;34.80;14.60;;;;;;;-2.41;75.54;99458.92;105465;1320;25559;-75
2021/12/21 09:47:45;;;;;;;26.10;10.30;;;;;;;-2.40;75.38;99457.39;105549;1320;22583;-73
2021/12/21 09:50:16;;;;;;;18.40;8.10;;;;;;;-2.40;75.29;99454.49;105698;1320;22665;-73
2021/12/21 09:52:43;;;;;;;16.60;6.40;;;;;;;-2.38;75.47;99449.39;105730;1319;22662;-76
2021/12/21 09:55:13;;;;;;;14.20;5.90;;;;;;;-2.36;75.08;99447.34;105713;1320;22580;-74
2021/12/21 09:57:40;;;;;;;18.50;7.60;;;;;;;-2.33;75.23;99448.54;105734;1319;25368;-75
2021/12/21 10:00:21;;;;;;;17.20;7.20;;;;;;;-2.30;74.81;99444.60;105747;1317;22572;-73
2021/12/21 10:02:48;;;;;;;16.30;6.10;;;;;;;-2.25;74.93;99447.69;105727;1319;26561;-74
2021/12/21 10:05:21;;;;;;;13.70;6.10;;;;;;;-2.24;74.55;99442.73;105707;1319;22759;-75
2021/12/21 10:08:00;;;;;;;15.00;7.40;;;;;;;-2.22;73.92;99444.41;105777;1319;25394;-75
2021/12/21 10:10:32;;;;;;;19.00;7.50;;;;;;;-2.20;73.68;99442.88;105755;1319;22594;-76
2021/12/21 10:13:18;;;;;;;34.40;11.90;;;;;;;-2.15;74.21;99444.24;105772;1318;22649;-77
2021/12/21 10:15:48;;;;;;;22.80;9.60;;;;;;;-2.10;74.01;99439.46;105763;1317;22668;-75
2021/12/21 10:18:32;;;;;;;30.10;13.40;;;;;;;-2.09;73.40;99441.52;105536;1319;22580;-76
2021/12/21 10:21:05;;;;;;;33.50;16.30;;;;;;;-2.08;71.77;99440.83;105467;1319;22643;-78
2021/12/21 10:23:35;;;;;;;18.00;7.20;;;;;;;-2.03;72.66;99447.30;105453;1319;25341;-77
2021/12/21 10:26:10;;;;;;;11.60;5.40;;;;;;;-2.00;72.15;99443.03;105477;1319;22569;-76
2021/12/21 10:28:41;;;;;;;30.30;11.80;;;;;;;-1.91;72.40;99448.30;105506;1319;22669;-76
2021/12/21 10:31:13;;;;;;;26.80;13.30;;;;;;;-1.83;72.60;99448.62;105534;1319;25184;-77
2021/12/21 10:33:44;;;;;;;24.80;10.60;;;;;;;-1.80;71.35;99444.52;105494;1319;23135;-75
2021/12/21 10:36:15;;;;;;;21.10;6.70;;;;;;;-1.79;71.40;99443.82;105453;1314;22922;-75
2021/12/21 10:38:53;;;;;;;18.30;6.10;;;;;;;-1.74;71.54;99438.52;105503;1317;22613;-75
2021/12/21 10:41:34;;;;;;;14.30;5.30;;;;;;;-1.75;69.50;99437.84;105612;1319;22584;-76
2021/12/21 10:44:11;;;;;;;24.90;9.20;;;;;;;-1.81;69.29;99438.21;105616;1319;22585;-76
2021/12/21 10:46:42;;;;;;;20.40;8.00;;;;;;;-1.83;69.85;99434.11;105593;1319;22716;-76
2021/12/21 10:49:14;;;;;;;35.00;11.70;;;;;;;-1.85;70.18;99431.04;105631;1319;22642;-75
2021/12/21 10:51:51;;;;;;;41.20;18.00;;;;;;;-1.87;69.63;99433.95;105621;1319;22576;-75
2021/12/21 10:54:33;;;;;;;31.70;12.90;;;;;;;-1.91;69.91;99433.28;105629;1319;22607;-79
2021/12/21 10:57:04;;;;;;;28.70;11.90;;;;;;;-1.93;69.25;99428.84;105619;1317;22729;-75
2021/12/21 10:59:34;;;;;;;24.70;10.60;;;;;;;-1.92;69.84;99426.63;105651;1319;22588;-79
2021/12/21 11:02:10;;;;;;;20.00;6.80;;;;;;;-1.90;70.32;99422.19;105485;1319;22723;-78
2021/12/21 11:04:39;;;;;;;22.60;6.20;;;;;;;-1.89;70.11;99424.06;105635;1316;23459;-74
2021/12/21 11:10:15;;;;;;;14.30;4.40;;;;;;;-1.89;70.30;99421.85;105629;1317;22575;-75
2021/12/21 11:12:46;;;;;;;11.90;4.00;;;;;;;-1.88;70.48;99420.30;105685;1319;23098;-75
2021/12/21 11:15:16;;;;;;;11.40;4.30;;;;;;;-1.90;70.62;99417.23;105608;1317;22590;-81
2021/12/21 11:17:44;;;;;;;17.70;6.30;;;;;;;-1.90;70.28;99416.55;105595;1319;23165;-74
2021/12/21 11:20:13;;;;;;;18.40;7.30;;;;;;;-1.91;70.05;99417.06;105937;1317;22589;-77
2021/12/21 11:22:45;;;;;;;22.10;8.00;;;;;;;-1.93;69.90;99415.87;105617;1319;24355;-75
2021/12/21 11:25:13;;;;;;;30.60;10.80;;;;;;;-1.91;69.78;99414.85;105828;1319;25688;-78
2021/12/21 11:27:42;;;;;;;34.50;11.40;;;;;;;-1.91;70.01;99413.30;105832;1317;24473;-76
2021/12/21 11:30:19;;;;;;;22.80;9.30;;;;;;;-1.89;69.93;99415.52;105801;1319;22763;-75
2021/12/21 11:32:49;;;;;;;13.00;4.60;;;;;;;-1.90;69.77;99415.70;105801;1318;22667;-80
2021/12/21 11:37:49;;;;;;;5.80;2.10;;;;;;;-1.93;69.29;99414.50;105887;1317;22636;-75
2021/12/21 11:40:20;;;;;;;6.20;2.50;;;;;;;-1.96;69.31;99414.67;105861;1318;22925;-78
2021/12/21 11:42:50;;;;;;;9.70;4.90;;;;;;;-1.96;69.41;99414.34;105885;1319;22789;-76
2021/12/21 11:45:21;;;;;;;7.70;3.00;;;;;;;-1.95;68.97;99414.50;105910;1319;22585;-76
2021/12/21 11:48:11;;;;;;;7.60;2.80;;;;;;;-1.95;68.96;99410.92;105872;1317;22610;-77
2021/12/21 11:50:41;;;;;;;9.50;2.90;;;;;;;-1.96;69.29;99409.55;105289;1326;22807;-77
2021/12/21 11:53:12;;;;;;;6.70;2.60;;;;;;;-1.97;68.66;99411.26;105297;1325;22583;-76
2021/12/21 11:55:43;;;;;;;5.00;2.10;;;;;;;-2.00;68.69;99409.92;105246;1326;22737;-77
2021/12/21 11:58:21;;;;;;;7.60;2.80;;;;;;;-2.01;68.73;99406.16;105274;1326;24249;-78
2021/12/21 12:00:57;;;;;;;8.00;3.10;;;;;;;-1.99;68.77;99406.17;105058;1328;22743;-78
2021/12/21 12:03:28;;;;;;;12.10;4.10;;;;;;;-1.99;68.95;99403.43;105280;1327;22646;-76
2021/12/21 12:06:02;;;;;;;16.10;5.00;;;;;;;-2.00;68.94;99405.14;105304;1326;22792;-74
2021/12/21 12:08:56;;;;;;;21.50;8.20;;;;;;;-2.01;68.75;99407.02;105294;1327;22563;-74
2021/12/21 12:11:39;;;;;;;17.20;7.30;;;;;;;-2.01;69.26;99408.04;105267;1326;22827;-77
2021/12/21 12:14:14;;;;;;;18.60;8.40;;;;;;;-2.00;69.25;99409.06;105264;1324;22591;-73
2021/12/21 12:16:54;;;;;;;17.00;7.10;;;;;;;-2.02;69.31;99405.14;105308;1326;22661;-75
2021/12/21 12:19:29;;;;;;;17.80;7.00;;;;;;;-2.03;69.36;99409.57;105256;1327;22677;-75
2021/12/21 12:22:05;;;;;;;16.70;6.50;;;;;;;-2.05;69.31;99408.55;105282;1325;22648;-74
2021/12/21 12:24:41;;;;;;;14.30;6.50;;;;;;;-2.04;69.51;99408.38;105275;1326;22751;-74
2021/12/21 12:27:10;;;;;;;21.40;8.30;;;;;;;-2.04;69.46;99405.98;105278;1326;24383;-78
2021/12/21 12:29:45;;;;;;;20.40;8.80;;;;;;;-1.99;69.91;99407.69;105881;1319;22719;-75
2021/12/21 12:32:14;;;;;;;21.70;9.00;;;;;;;-1.92;70.80;99407.67;105884;1319;22792;-79
2021/12/21 12:34:42;;;;;;;17.50;7.70;;;;;;;-1.88;71.13;99411.25;105945;1319;22659;-79
2021/12/21 12:37:21;;;;;;;17.30;7.50;;;;;;;-1.87;71.12;99411.91;105923;1317;22651;-81
2021/12/21 12:39:51;;;;;;;14.80;7.50;;;;;;;-1.87;70.75;99414.31;105888;1319;22923;-77
2021/12/21 12:42:28;;;;;;;22.90;9.40;;;;;;;-1.88;70.50;99412.45;105922;1319;22557;-78
2021/12/21 12:45:19;;;;;;;19.00;7.80;;;;;;;-1.89;70.26;99412.45;105906;1318;22581;-78